Time;durP1;ratioP1;P1;durP2;ratioP2;P2;SDS_P1;SDS_P2;PMS_P1;PMS_P2;Temp;Humidity;BMP_temperature;BMP_pressure;BME280_temperature;BME280_humidity;BME280_pressure;Samples;Min_cycle;Max_cycle;Signal;HPM_P1;HPM_P2
2024/03/21 00:00:17;;;;;;;3.53;2.90;;;10.80;99.90;;;;;;5053865;28;20522;-69
2024/03/21 00:02:50;;;;;;;4.80;3.63;;;10.80;99.90;;;;;;5053627;28;20661;-69
2024/03/21 00:05:17;;;;;;;5.60;3.50;;;10.70;99.90;;;;;;5035806;28;20820;-69
2024/03/21 00:07:45;;;;;;;4.43;3.17;;;10.70;99.90;;;;;;5065993;28;20446;-69
2024/03/21 00:10:12;;;;;;;3.70;3.17;;;10.60;99.90;;;;;;5073503;28;20411;-69
2024/03/21 00:12:39;;;;;;;5.93;3.73;;;10.60;99.90;;;;;;5071784;28;20453;-69
2024/03/21 00:15:05;;;;;;;3.50;3.10;;;10.50;99.90;;;;;;5073201;28;20411;-69
2024/03/21 00:17:31;;;;;;;5.33;2.97;;;10.50;99.90;;;;;;5073073;28;20495;-69
2024/03/21 00:19:57;;;;;;;12.30;4.70;;;10.40;99.90;;;;;;5055211;28;21001;-69
2024/03/21 00:22:23;;;;;;;4.77;3.23;;;10.40;99.90;;;;;;5073177;28;20400;-69
2024/03/21 00:24:49;;;;;;;5.77;2.87;;;10.30;99.90;;;;;;5073203;28;20625;-69
2024/03/21 00:27:14;;;;;;;3.20;2.80;;;10.20;99.90;;;;;;5068190;28;20522;-69
2024/03/21 00:29:40;;;;;;;4.87;2.80;;;10.20;99.90;;;;;;5046891;28;20190;-69
2024/03/21 00:32:06;;;;;;;4.07;2.30;;;10.20;99.90;;;;;;5072951;28;20165;-70
2024/03/21 00:34:31;;;;;;;3.60;3.30;;;10.00;99.90;;;;;;5072943;28;20641;-69
2024/03/21 00:36:57;;;;;;;3.20;2.83;;;10.00;99.90;;;;;;5068465;28;20423;-69
2024/03/21 00:39:23;;;;;;;9.20;2.60;;;10.00;99.90;;;;;;5072893;28;20197;-69
2024/03/21 00:41:49;;;;;;;5.87;3.63;;;10.00;99.90;;;;;;5061162;28;20174;-69
2024/03/21 00:44:15;;;;;;;3.63;3.30;;;9.90;99.90;;;;;;5072791;28;20415;-69
2024/03/21 00:46:41;;;;;;;3.53;3.00;;;9.90;99.90;;;;;;5070495;28;20416;-69
2024/03/21 00:49:08;;;;;;;3.83;3.43;;;9.90;99.90;;;;;;5068274;28;20272;-69
2024/03/21 00:51:34;;;;;;;10.70;5.17;;;9.80;99.90;;;;;;5072571;28;20166;-69
2024/03/21 00:54:00;;;;;;;4.63;3.67;;;9.80;99.90;;;;;;5072354;28;20874;-69
2024/03/21 00:56:26;;;;;;;6.50;4.93;;;9.80;99.90;;;;;;5072519;28;20181;-69
2024/03/21 00:58:54;;;;;;;8.07;3.70;;;9.80;99.90;;;;;;5072341;28;20421;-69
2024/03/21 01:01:20;;;;;;;5.67;4.63;;;9.80;99.90;;;;;;5072082;28;20197;-69
2024/03/21 01:03:46;;;;;;;8.93;4.90;;;9.90;99.90;;;;;;5072216;28;20440;-69
2024/03/21 01:06:11;;;;;;;8.17;5.27;;;9.80;99.90;;;;;;5054380;28;20439;-69
2024/03/21 01:08:37;;;;;;;8.90;4.57;;;9.90;99.90;;;;;;5072073;28;20193;-69
2024/03/21 01:11:03;;;;;;;7.03;4.40;;;9.90;99.90;;;;;;5054294;28;20173;-69
2024/03/21 01:13:28;;;;;;;13.23;5.60;;;9.90;99.90;;;;;;5062677;28;20190;-69
2024/03/21 01:15:54;;;;;;;7.33;4.83;;;9.80;99.90;;;;;;5072050;28;20424;-69
2024/03/21 01:18:25;;;;;;;8.47;4.97;;;9.80;99.90;;;;;;5054063;28;20259;-69
2024/03/21 01:20:51;;;;;;;8.40;5.63;;;9.90;99.90;;;;;;5064327;28;20174;-69
2024/03/21 01:23:17;;;;;;;4.87;4.37;;;9.90;99.90;;;;;;5072092;28;20404;-69
2024/03/21 01:25:42;;;;;;;8.00;3.80;;;10.00;99.90;;;;;;5072085;28;20641;-69
2024/03/21 01:28:08;;;;;;;5.33;4.80;;;10.00;99.90;;;;;;5064070;28;20289;-69
2024/03/21 01:30:33;;;;;;;6.83;4.47;;;10.00;99.90;;;;;;5070187;28;20174;-69
2024/03/21 01:33:00;;;;;;;7.33;6.10;;;10.10;99.90;;;;;;5071968;28;20549;-69
2024/03/21 01:35:26;;;;;;;5.13;4.67;;;10.10;99.90;;;;;;5071956;28;20170;-69
2024/03/21 01:37:53;;;;;;;5.90;4.20;;;10.10;99.90;;;;;;5071754;28;20413;-69
2024/03/21 01:40:19;;;;;;;12.20;5.70;;;10.10;99.90;;;;;;5071779;28;20409;-69
2024/03/21 01:42:46;;;;;;;12.40;5.10;;;10.10;99.90;;;;;;5070542;28;20401;-69
2024/03/21 01:45:12;;;;;;;7.27;5.17;;;10.10;99.90;;;;;;5070247;28;20458;-69
2024/03/21 01:47:37;;;;;;;11.03;8.40;;;10.20;99.90;;;;;;5065245;28;20400;-70
2024/03/21 01:50:05;;;;;;;15.10;6.73;;;10.30;99.90;;;;;;5042077;28;20179;-70
2024/03/21 01:52:31;;;;;;;11.60;7.30;;;10.40;99.90;;;;;;5061948;28;20197;-70
2024/03/21 01:54:58;;;;;;;12.97;7.20;;;10.50;99.90;;;;;;5071890;28;20401;-70
2024/03/21 01:57:24;;;;;;;18.20;7.30;;;10.70;99.90;;;;;;5050419;28;20421;-70
2024/03/21 01:59:50;;;;;;;8.13;6.20;;;10.80;99.90;;;;;;5051508;28;20952;-70
2024/03/21 02:02:15;;;;;;;9.73;6.40;;;11.00;99.90;;;;;;5033937;28;20405;-70
2024/03/21 02:04:42;;;;;;;10.07;7.47;;;11.10;99.90;;;;;;5051660;28;20927;-69
2024/03/21 02:07:09;;;;;;;12.80;9.17;;;11.10;99.90;;;;;;5051494;28;20254;-69
2024/03/21 02:09:35;;;;;;;10.60;8.53;;;11.20;99.90;;;;;;5054237;28;20429;-70
2024/03/21 02:12:08;;;;;;;13.83;9.43;;;11.30;99.90;;;;;;5071735;28;20759;-70
2024/03/21 02:14:36;;;;;;;12.20;9.43;;;11.40;99.90;;;;;;5073351;28;20418;-70
2024/03/21 02:17:02;;;;;;;12.10;9.50;;;11.50;99.90;;;;;;5075596;28;20404;-70
2024/03/21 02:19:28;;;;;;;14.40;9.67;;;11.60;99.90;;;;;;5075421;28;20424;-70
2024/03/21 02:24:38;;;;;;;12.23;9.60;;;11.70;99.90;;;;;;5075531;28;20434;-70
2024/03/21 02:27:04;;;;;;;12.10;10.07;;;11.80;99.90;;;;;;5075452;28;20416;-70
2024/03/21 02:29:30;;;;;;;13.33;10.23;;;11.90;99.90;;;;;;5049384;28;20704;-70
2024/03/21 02:31:56;;;;;;;11.57;10.07;;;11.90;99.90;;;;;;5057880;28;20427;-70
2024/03/21 02:34:21;;;;;;;12.20;10.00;;;11.90;99.90;;;;;;5072343;28;20412;-70
2024/03/21 02:36:47;;;;;;;12.37;9.60;;;12.00;99.90;;;;;;5075330;28;20194;-70
2024/03/21 02:39:12;;;;;;;14.87;11.30;;;12.00;99.90;;;;;;5074940;28;20201;-70
2024/03/21 02:41:38;;;;;;;15.17;11.07;;;12.00;99.90;;;;;;5064866;28;20170;-70
2024/03/21 02:44:04;;;;;;;13.57;10.00;;;12.00;99.90;;;;;;5073910;28;20186;-70
2024/03/21 02:46:30;;;;;;;13.27;10.60;;;12.10;99.90;;;;;;5073962;28;20185;-69
2024/03/21 02:48:55;;;;;;;15.30;9.53;;;12.10;99.90;;;;;;5062255;28;20449;-70
2024/03/21 02:51:23;;;;;;;16.70;12.50;;;12.10;99.90;;;;;;5072026;28;20189;-70
2024/03/21 02:53:53;;;;;;;12.83;11.27;;;12.10;99.90;;;;;;5074980;28;20208;-70
2024/03/21 02:56:18;;;;;;;15.40;11.50;;;12.20;99.90;;;;;;5073651;28;20747;-70
2024/03/21 02:58:44;;;;;;;13.20;11.37;;;12.20;99.90;;;;;;5070810;28;20853;-70
2024/03/21 03:01:09;;;;;;;18.20;12.00;;;12.20;99.90;;;;;;5074608;28;20245;-70
2024/03/21 03:03:35;;;;;;;21.13;11.87;;;12.20;99.90;;;;;;5074742;28;20170;-70
2024/03/21 03:06:01;;;;;;;20.20;13.43;;;12.20;99.90;;;;;;5074446;28;20175;-70
2024/03/21 03:08:27;;;;;;;18.33;13.33;;;12.20;99.90;;;;;;5056363;28;20209;-70
2024/03/21 03:10:53;;;;;;;16.67;13.13;;;12.20;99.90;;;;;;5070126;28;20421;-70
2024/03/21 03:13:19;;;;;;;18.57;13.70;;;12.30;99.90;;;;;;5074548;28;20219;-70
2024/03/21 03:15:44;;;;;;;18.83;14.80;;;12.30;99.90;;;;;;5073078;28;20786;-70
2024/03/21 03:18:10;;;;;;;19.10;14.40;;;12.20;99.90;;;;;;5073269;28;20194;-70
2024/03/21 03:20:35;;;;;;;18.87;15.13;;;12.20;99.90;;;;;;5074466;28;20170;-70
2024/03/21 03:23:01;;;;;;;29.17;18.13;;;12.20;99.90;;;;;;5074361;28;20167;-70
2024/03/21 03:25:27;;;;;;;26.77;16.63;;;12.20;99.90;;;;;;5055903;28;20205;-70
2024/03/21 03:27:54;;;;;;;24.87;17.90;;;12.10;99.90;;;;;;5074295;28;20439;-70
2024/03/21 03:30:20;;;;;;;22.00;16.73;;;12.10;99.90;;;;;;5074173;28;20527;-70
2024/03/21 03:32:58;;;;;;;26.63;16.57;;;12.10;99.90;;;;;;5074233;28;20448;-69
2024/03/21 03:35:42;;;;;;;25.90;17.60;;;12.10;99.90;;;;;;5073022;28;20465;-69
2024/03/21 03:38:11;;;;;;;31.47;19.17;;;12.10;99.90;;;;;;5073995;28;20991;-70
2024/03/21 03:40:37;;;;;;;21.00;16.47;;;12.20;99.90;;;;;;5058299;28;20409;-70
2024/03/21 03:43:02;;;;;;;28.33;19.67;;;12.20;99.90;;;;;;5036123;28;20795;-70
2024/03/21 03:45:28;;;;;;;25.73;19.37;;;12.20;99.90;;;;;;5054266;28;20171;-70
2024/03/21 03:47:53;;;;;;;28.17;19.60;;;12.30;99.90;;;;;;5058107;28;20197;-70
2024/03/21 03:50:19;;;;;;;31.13;20.20;;;12.30;99.90;;;;;;5061967;28;20174;-70
2024/03/21 03:52:45;;;;;;;31.00;21.53;;;12.30;99.90;;;;;;5063835;28;20687;-70
2024/03/21 03:55:10;;;;;;;29.27;19.57;;;12.30;99.90;;;;;;5073903;28;20400;-70
2024/03/21 03:57:36;;;;;;;24.83;18.07;;;12.30;99.90;;;;;;5070676;28;20178;-70
2024/03/21 04:00:02;;;;;;;29.70;18.17;;;12.30;99.90;;;;;;5067523;28;20198;-70
2024/03/21 04:02:29;;;;;;;28.23;19.97;;;12.30;99.90;;;;;;5073721;28;20186;-70
2024/03/21 04:04:55;;;;;;;25.73;17.57;;;12.30;99.90;;;;;;5072427;28;20935;-70
2024/03/21 04:07:21;;;;;;;25.97;18.80;;;12.30;99.90;;;;;;5072265;28;20455;-70
2024/03/21 04:09:47;;;;;;;24.90;16.90;;;12.20;99.90;;;;;;5053328;28;20256;-70
2024/03/21 04:12:12;;;;;;;26.70;18.90;;;12.20;99.90;;;;;;5060546;28;20416;-70
2024/03/21 04:14:38;;;;;;;25.60;19.00;;;12.20;99.90;;;;;;5073550;28;20613;-70
2024/03/21 04:17:04;;;;;;;29.73;18.47;;;12.20;99.90;;;;;;5072840;28;20702;-70
2024/03/21 04:19:29;;;;;;;29.43;19.73;;;12.20;99.90;;;;;;5053283;28;20202;-70
2024/03/21 04:21:55;;;;;;;26.27;18.73;;;12.10;99.90;;;;;;5053893;28;20171;-70
2024/03/21 04:24:20;;;;;;;30.63;20.43;;;12.10;99.90;;;;;;5053259;28;20549;-70
2024/03/21 04:26:46;;;;;;;28.57;19.40;;;12.10;99.90;;;;;;5053108;28;20246;-70
2024/03/21 04:29:11;;;;;;;30.17;21.17;;;12.00;99.90;;;;;;5067909;28;20205;-70
2024/03/21 04:31:37;;;;;;;26.80;18.00;;;12.00;99.90;;;;;;5073049;28;20261;-70
2024/03/21 04:34:02;;;;;;;33.13;20.50;;;12.00;99.90;;;;;;5072974;28;20546;-70
2024/03/21 04:36:28;;;;;;;30.57;19.93;;;12.00;99.90;;;;;;5072422;28;20165;-69
2024/03/21 04:38:53;;;;;;;31.40;19.50;;;12.10;99.90;;;;;;5053569;28;20566;-70
2024/03/21 04:41:18;;;;;;;30.13;19.50;;;12.10;99.90;;;;;;5071589;28;20184;-70
2024/03/21 04:43:44;;;;;;;31.40;19.80;;;12.20;99.90;;;;;;5071531;28;20177;-70
2024/03/21 04:46:09;;;;;;;34.93;18.67;;;12.20;99.90;;;;;;5072718;28;20279;-70
2024/03/21 04:48:35;;;;;;;36.73;20.70;;;12.30;99.90;;;;;;5064769;28;20209;-70
2024/03/21 04:51:00;;;;;;;28.90;19.60;;;12.30;99.90;;;;;;5072580;28;20178;-70
2024/03/21 04:53:27;;;;;;;33.13;19.43;;;12.40;99.90;;;;;;5072489;28;20293;-70
2024/03/21 04:55:53;;;;;;;29.80;19.20;;;12.40;99.90;;;;;;5072504;28;20173;-70
2024/03/21 04:58:18;;;;;;;28.60;18.70;;;12.40;99.90;;;;;;5054105;28;20996;-70
2024/03/21 05:00:44;;;;;;;32.73;19.80;;;12.40;99.90;;;;;;5071987;28;20419;-70
2024/03/21 05:03:09;;;;;;;28.67;19.40;;;12.40;99.90;;;;;;5072392;28;20170;-70
2024/03/21 05:05:35;;;;;;;26.00;19.00;;;12.40;99.90;;;;;;5072608;28;20170;-70
2024/03/21 05:08:00;;;;;;;30.73;19.37;;;12.40;99.90;;;;;;5071517;28;20190;-70
2024/03/21 05:10:26;;;;;;;31.47;19.60;;;12.40;99.90;;;;;;5056804;28;20556;-70
2024/03/21 05:12:52;;;;;;;28.10;18.30;;;12.40;99.90;;;;;;5052102;28;20202;-70
2024/03/21 05:15:18;;;;;;;32.30;21.27;;;12.40;99.90;;;;;;5067349;28;20220;-70
2024/03/21 05:17:44;;;;;;;27.87;19.73;;;12.40;99.90;;;;;;5071881;28;20404;-69
2024/03/21 05:20:10;;;;;;;32.57;21.50;;;12.30;99.90;;;;;;5068721;28;20465;-70
2024/03/21 05:22:35;;;;;;;31.07;20.93;;;12.40;99.90;;;;;;5053433;28;20175;-70
2024/03/21 05:25:01;;;;;;;30.80;20.73;;;12.30;99.90;;;;;;5052151;28;20815;-70
2024/03/21 05:27:26;;;;;;;49.90;25.03;;;12.20;99.90;;;;;;5052604;28;20355;-70
2024/03/21 05:29:52;;;;;;;30.43;21.13;;;12.20;99.90;;;;;;5052285;28;20197;-70
2024/03/21 05:32:17;;;;;;;33.13;20.30;;;12.10;99.90;;;;;;5067300;28;20182;-70
2024/03/21 05:34:43;;;;;;;26.97;17.53;;;12.00;99.90;;;;;;5072051;28;20208;-70
2024/03/21 05:37:08;;;;;;;28.50;19.10;;;12.00;99.90;;;;;;5064877;28;20201;-70
2024/03/21 05:39:34;;;;;;;29.57;19.33;;;11.90;99.90;;;;;;5053953;28;20284;-70
2024/03/21 05:41:59;;;;;;;28.30;18.60;;;11.90;99.90;;;;;;5072062;28;20177;-70
2024/03/21 05:44:25;;;;;;;28.70;19.70;;;11.80;99.90;;;;;;5071914;28;20174;-70
2024/03/21 05:46:52;;;;;;;37.17;20.10;;;11.70;99.90;;;;;;5072017;28;20226;-70
2024/03/21 05:49:18;;;;;;;33.00;20.80;;;11.50;99.90;;;;;;5055654;28;20619;-70
2024/03/21 05:51:43;;;;;;;29.63;21.73;;;11.40;99.90;;;;;;5070988;28;20409;-70
2024/03/21 05:54:09;;;;;;;26.50;19.73;;;11.30;99.90;;;;;;5071744;28;20194;-70
2024/03/21 05:56:35;;;;;;;24.07;19.30;;;11.30;99.90;;;;;;5071693;28;20206;-70
2024/03/21 05:59:01;;;;;;;31.20;20.30;;;11.20;99.90;;;;;;5056874;28;20207;-70
2024/03/21 06:01:32;;;;;;;28.60;20.90;;;11.10;99.90;;;;;;5068110;28;20773;-70
2024/03/21 06:03:58;;;;;;;32.50;22.00;;;11.10;99.90;;;;;;5054266;28;20470;-70
2024/03/21 06:06:24;;;;;;;36.60;22.27;;;11.00;99.90;;;;;;5071472;28;20420;-70
2024/03/21 06:08:50;;;;;;;30.43;23.67;;;11.10;99.90;;;;;;5071639;28;20972;-70
2024/03/21 06:11:15;;;;;;;52.43;22.40;;;11.10;99.90;;;;;;5071689;28;20535;-70
2024/03/21 06:13:40;;;;;;;30.93;20.93;;;11.20;99.90;;;;;;5071704;28;20201;-70
2024/03/21 06:16:07;;;;;;;42.97;21.90;;;11.30;99.90;;;;;;5071622;28;20621;-70
2024/03/21 06:18:32;;;;;;;29.60;21.67;;;11.50;99.90;;;;;;5071549;28;20236;-70
2024/03/21 06:20:58;;;;;;;26.00;19.23;;;11.70;99.90;;;;;;5071436;28;20409;-70
2024/03/21 06:23:24;;;;;;;27.50;20.80;;;11.90;99.90;;;;;;5053542;28;20189;-70
2024/03/21 06:25:49;;;;;;;33.00;20.83;;;12.10;99.90;;;;;;5071346;28;20177;-70
2024/03/21 06:28:15;;;;;;;29.60;19.53;;;12.20;99.90;;;;;;5053474;28;20190;-70
2024/03/21 06:30:40;;;;;;;32.40;20.67;;;12.30;99.90;;;;;;5071575;28;20170;-70
2024/03/21 06:33:06;;;;;;;26.43;18.80;;;12.30;99.90;;;;;;5071373;28;20202;-70
2024/03/21 06:35:31;;;;;;;25.97;18.63;;;12.40;99.90;;;;;;5071382;28;20170;-70
2024/03/21 06:37:57;;;;;;;26.67;19.47;;;12.40;99.90;;;;;;5065198;28;20198;-70
2024/03/21 06:40:24;;;;;;;28.33;20.00;;;12.40;99.90;;;;;;5068565;28;20178;-70
2024/03/21 06:42:50;;;;;;;31.77;21.30;;;12.50;99.90;;;;;;5071298;28;20424;-70
2024/03/21 06:45:16;;;;;;;28.23;18.63;;;12.50;99.90;;;;;;5071413;28;20499;-70
2024/03/21 06:47:44;;;;;;;28.20;17.63;;;12.50;99.90;;;;;;5071251;28;20171;-70
2024/03/21 06:50:17;;;;;;;30.47;19.03;;;12.60;99.90;;;;;;5071091;28;20257;-70
2024/03/21 06:52:50;;;;;;;31.03;21.20;;;12.70;99.90;;;;;;5070985;28;20456;-70
2024/03/21 06:55:17;;;;;;;33.90;20.93;;;12.80;99.90;;;;;;5071151;28;20400;-70
2024/03/21 06:57:46;;;;;;;28.90;17.97;;;13.00;99.90;;;;;;5071185;28;20428;-70
2024/03/21 07:00:12;;;;;;;35.07;20.20;;;13.10;99.90;;;;;;5072177;28;20465;-69
2024/03/21 07:02:38;;;;;;;34.40;20.27;;;13.20;99.90;;;;;;5052969;28;20471;-70
2024/03/21 07:05:05;;;;;;;26.20;17.80;;;13.50;99.90;;;;;;5045665;28;20506;-70
2024/03/21 07:07:31;;;;;;;31.30;20.50;;;13.70;99.90;;;;;;5070735;28;20404;-69
2024/03/21 07:09:56;;;;;;;26.23;19.20;;;13.90;99.90;;;;;;5056459;28;20515;-70
2024/03/21 07:12:22;;;;;;;38.93;21.10;;;14.10;99.90;;;;;;5074327;28;20177;-72
2024/03/21 07:14:48;;;;;;;29.17;20.37;;;14.50;99.90;;;;;;5074562;28;20170;-70
2024/03/21 07:17:14;;;;;;;22.93;16.60;;;15.00;99.90;;;;;;5074269;28;20621;-70
2024/03/21 07:19:39;;;;;;;21.20;17.33;;;15.40;99.90;;;;;;5074408;28;20435;-70
2024/03/21 07:22:05;;;;;;;27.37;16.90;;;15.90;99.90;;;;;;5074425;28;20249;-71
2024/03/21 07:24:34;;;;;;;34.37;19.27;;;16.40;99.90;;;;;;5074334;28;20409;-71
2024/03/21 07:27:04;;;;;;;24.50;17.97;;;16.80;99.90;;;;;;5074087;28;20169;-70
2024/03/21 07:29:29;;;;;;;23.80;17.90;;;16.90;99.90;;;;;;5074252;28;20428;-70
2024/03/21 07:31:56;;;;;;;29.00;18.40;;;17.10;99.90;;;;;;5074162;28;20831;-70
2024/03/21 07:34:23;;;;;;;23.07;18.00;;;17.10;99.90;;;;;;5074034;28;20206;-70
2024/03/21 07:36:50;;;;;;;28.70;20.00;;;17.10;99.90;;;;;;5073875;28;20412;-70
2024/03/21 07:39:19;;;;;;;23.73;18.13;;;17.10;99.90;;;;;;5070280;28;20440;-71
2024/03/21 07:41:45;;;;;;;21.07;16.40;;;17.10;99.90;;;;;;5073850;28;20409;-70
2024/03/21 07:44:11;;;;;;;26.30;16.47;;;16.90;99.90;;;;;;5073810;28;20416;-70
2024/03/21 07:46:43;;;;;;;28.23;17.70;;;16.70;99.90;;;;;;5073479;28;20503;-70
2024/03/21 07:49:09;;;;;;;30.37;18.13;;;16.40;99.90;;;;;;5073771;28;20431;-71
2024/03/21 07:51:35;;;;;;;20.20;14.90;;;16.10;99.90;;;;;;5073755;28;20413;-71
2024/03/21 07:54:04;;;;;;;25.13;15.87;;;15.90;99.90;;;;;;5073691;28;20535;-71
2024/03/21 07:56:30;;;;;;;29.30;18.23;;;15.70;99.90;;;;;;5073513;28;20770;-70
2024/03/21 07:58:58;;;;;;;26.70;17.07;;;15.60;99.90;;;;;;5073530;28;20432;-70
2024/03/21 08:01:25;;;;;;;26.37;15.80;;;15.40;99.90;;;;;;5060130;28;20417;-70
2024/03/21 08:03:52;;;;;;;26.27;18.20;;;15.30;99.90;;;;;;5073452;28;20400;-70
2024/03/21 08:06:21;;;;;;;21.93;17.33;;;15.10;99.90;;;;;;5073200;28;20404;-70
2024/03/21 08:08:47;;;;;;;25.40;16.40;;;14.90;99.90;;;;;;5056760;28;20443;-70
2024/03/21 08:11:13;;;;;;;26.57;17.53;;;14.80;99.90;;;;;;5073235;28;20487;-71
2024/03/21 08:13:44;;;;;;;26.87;20.00;;;14.70;99.90;;;;;;5070905;28;20499;-71
2024/03/21 08:16:10;;;;;;;24.87;15.60;;;14.60;99.90;;;;;;5073023;28;20436;-70
2024/03/21 08:18:39;;;;;;;31.73;18.07;;;14.50;99.90;;;;;;5072884;28;20514;-70
2024/03/21 08:21:05;;;;;;;24.90;16.80;;;14.50;99.90;;;;;;5063164;28;20176;-70
2024/03/21 08:23:31;;;;;;;27.23;16.63;;;14.50;99.90;;;;;;5073240;28;20436;-71
2024/03/21 08:26:07;;;;;;;26.27;16.87;;;14.40;99.90;;;;;;5054958;28;20414;-71
2024/03/21 08:28:33;;;;;;;26.77;17.17;;;14.40;99.90;;;;;;5072764;28;20431;-70
2024/03/21 08:30:59;;;;;;;30.83;18.60;;;14.30;99.90;;;;;;5058548;28;20437;-69
2024/03/21 08:33:28;;;;;;;22.50;16.97;;;14.30;99.90;;;;;;5059524;28;20561;-69
2024/03/21 08:35:55;;;;;;;25.33;17.00;;;14.30;99.90;;;;;;5063059;28;20416;-70
2024/03/21 08:38:24;;;;;;;24.03;16.73;;;14.30;99.90;;;;;;5072770;28;20424;-69
2024/03/21 08:40:54;;;;;;;22.03;15.07;;;14.20;99.90;;;;;;5072782;28;20420;-69
2024/03/21 08:43:22;;;;;;;24.33;15.70;;;14.20;99.90;;;;;;5072881;28;20400;-69
2024/03/21 08:45:51;;;;;;;25.83;16.00;;;14.20;99.90;;;;;;5054434;28;20416;-69
2024/03/21 08:48:17;;;;;;;28.97;17.40;;;14.10;99.90;;;;;;5055465;28;20630;-70
2024/03/21 08:50:45;;;;;;;26.77;16.57;;;14.00;99.90;;;;;;5052556;28;20923;-69
2024/03/21 08:53:15;;;;;;;20.83;16.43;;;14.00;99.90;;;;;;5052432;28;20202;-69
2024/03/21 08:55:41;;;;;;;23.43;15.37;;;14.00;99.90;;;;;;5034498;28;20508;-69
2024/03/21 08:58:07;;;;;;;19.33;14.43;;;14.00;99.90;;;;;;5034667;28;20853;-70
2024/03/21 09:00:33;;;;;;;18.97;12.57;;;14.10;99.90;;;;;;5052550;28;20490;-70
2024/03/21 09:03:00;;;;;;;21.70;15.70;;;14.10;99.90;;;;;;5034636;28;20417;-69
2024/03/21 09:05:27;;;;;;;18.27;12.83;;;14.20;99.90;;;;;;5052420;28;20401;-69
2024/03/21 09:07:55;;;;;;;15.20;11.10;;;14.30;99.90;;;;;;5034490;28;20422;-69
2024/03/21 09:10:21;;;;;;;19.47;13.83;;;14.40;99.90;;;;;;5052478;28;20420;-69
2024/03/21 09:12:47;;;;;;;18.70;11.13;;;14.40;99.90;;;;;;5052491;28;21079;-70
2024/03/21 09:15:16;;;;;;;19.90;11.27;;;14.50;99.90;;;;;;5052110;28;20492;-69
2024/03/21 09:17:42;;;;;;;16.80;11.83;;;14.60;99.90;;;;;;5052106;28;20412;-69
2024/03/21 09:20:09;;;;;;;16.37;11.93;;;14.50;99.90;;;;;;5052267;28;20509;-69
2024/03/21 09:22:35;;;;;;;17.60;12.97;;;14.50;99.90;;;;;;5051662;28;20237;-69
2024/03/21 09:25:04;;;;;;;14.30;10.60;;;14.60;99.90;;;;;;5052094;28;20413;-70
2024/03/21 09:27:30;;;;;;;12.83;10.00;;;14.70;99.90;;;;;;5051875;28;20504;-70
2024/03/21 09:29:59;;;;;;;14.00;10.77;;;14.90;99.90;;;;;;5051959;28;20472;-69
2024/03/21 09:32:25;;;;;;;12.97;9.20;;;15.10;99.90;;;;;;5051945;28;20523;-69
2024/03/21 09:34:51;;;;;;;15.33;9.60;;;15.20;99.90;;;;;;5051984;28;20815;-69
2024/03/21 09:37:24;;;;;;;12.93;10.60;;;15.30;99.90;;;;;;5051744;28;20405;-69
2024/03/21 09:39:50;;;;;;;12.40;8.53;;;15.30;99.90;;;;;;5051868;28;20487;-70
2024/03/21 09:42:20;;;;;;;14.60;8.80;;;15.30;99.90;;;;;;5051867;28;20454;-69
2024/03/21 09:44:53;;;;;;;14.47;8.40;;;15.40;99.90;;;;;;5051752;28;20491;-69
2024/03/21 09:47:27;;;;;;;11.07;8.50;;;15.40;99.90;;;;;;5033827;28;20508;-69
2024/03/21 09:49:53;;;;;;;12.83;8.70;;;15.50;99.90;;;;;;5051803;28;20471;-69
2024/03/21 09:52:19;;;;;;;11.93;8.33;;;15.50;99.90;;;;;;5051734;28;20425;-69
2024/03/21 09:54:46;;;;;;;10.33;8.70;;;15.50;99.90;;;;;;5051803;28;20406;-70
2024/03/21 09:57:13;;;;;;;15.23;10.03;;;15.50;99.90;;;;;;5051550;28;20777;-69
2024/03/21 09:59:40;;;;;;;16.63;11.00;;;15.50;99.90;;;;;;5051735;28;20429;-69
2024/03/21 10:02:12;;;;;;;11.20;8.27;;;15.50;99.90;;;;;;5051689;28;20806;-70
2024/03/21 10:04:49;;;;;;;12.63;8.07;;;15.70;99.90;;;;;;5056346;28;20466;-68
2024/03/21 10:07:22;;;;;;;12.33;8.37;;;16.00;99.90;;;;;;5071464;28;20464;-70
2024/03/21 10:09:55;;;;;;;8.83;6.80;;;16.30;99.90;;;;;;5053599;28;20471;-72
2024/03/21 10:12:24;;;;;;;10.47;6.50;;;16.70;99.90;;;;;;5071570;28;20415;-70
2024/03/21 10:14:59;;;;;;;9.00;7.27;;;16.80;99.90;;;;;;5071646;28;20784;-70
2024/03/21 10:17:26;;;;;;;6.73;5.90;;;16.90;99.90;;;;;;5071502;28;20408;-69
2024/03/21 10:19:55;;;;;;;11.70;6.67;;;17.00;99.90;;;;;;5071489;28;20511;-70
2024/03/21 10:22:22;;;;;;;8.47;6.50;;;17.10;99.90;;;;;;5071624;28;20462;-69
2024/03/21 10:24:55;;;;;;;10.70;7.13;;;17.20;99.90;;;;;;5071435;28;20405;-70
2024/03/21 10:27:24;;;;;;;11.60;7.40;;;17.40;99.90;;;;;;5071358;28;20393;-69
2024/03/21 10:29:55;;;;;;;10.83;8.73;;;17.50;99.90;;;;;;5071392;28;20424;-69
2024/03/21 10:32:22;;;;;;;10.93;8.40;;;17.50;99.90;;;;;;5071382;28;20404;-70
2024/03/21 10:34:52;;;;;;;8.20;7.13;;;17.60;99.90;;;;;;5072232;28;20922;-70
2024/03/21 10:37:23;;;;;;;10.27;7.37;;;17.70;99.90;;;;;;5075004;28;20781;-70
2024/03/21 10:39:51;;;;;;;8.97;6.93;;;17.80;99.90;;;;;;5057133;28;20464;-69
2024/03/21 10:42:23;;;;;;;9.30;6.47;;;17.90;99.90;;;;;;5075111;28;20796;-70
2024/03/21 10:44:58;;;;;;;8.10;6.50;;;17.90;99.90;;;;;;5075111;28;20411;-69
2024/03/21 10:47:25;;;;;;;8.63;7.23;;;17.90;99.90;;;;;;5074808;28;20414;-70
2024/03/21 10:49:51;;;;;;;9.03;6.80;;;17.90;99.90;;;;;;5075064;28;20424;-70
2024/03/21 10:52:17;;;;;;;7.90;7.03;;;17.80;99.90;;;;;;5074758;28;20416;-70
2024/03/21 10:54:48;;;;;;;8.70;6.03;;;17.80;99.90;;;;;;5075010;28;20864;-70
2024/03/21 10:57:18;;;;;;;4.97;4.47;;;17.80;99.90;;;;;;5074745;28;20401;-70
2024/03/21 10:59:55;;;;;;;9.03;5.40;;;17.90;99.90;;;;;;5074921;28;20474;-70
2024/03/21 11:02:21;;;;;;;5.80;4.87;;;18.00;99.90;;;;;;5074982;28;20762;-70
2024/03/21 11:04:47;;;;;;;9.47;6.03;;;18.10;99.90;;;;;;5056900;28;20474;-70
2024/03/21 11:07:14;;;;;;;7.97;5.37;;;18.20;99.90;;;;;;5074489;28;20404;-70
2024/03/21 11:09:43;;;;;;;4.93;4.20;;;18.50;99.90;;;;;;5056658;28;20451;-69
2024/03/21 11:12:11;;;;;;;6.37;3.53;;;18.70;99.90;;;;;;5074673;28;20907;-70
2024/03/21 11:14:38;;;;;;;6.00;4.17;;;19.00;99.90;;;;;;5074528;28;20895;-70
2024/03/21 11:17:04;;;;;;;5.40;4.17;;;19.20;99.90;;;;;;5074345;28;20416;-70
2024/03/21 11:19:30;;;;;;;6.43;5.80;;;19.20;97.70;;;;;;5074431;28;20926;-70
2024/03/21 11:21:57;;;;;;;6.20;4.87;;;19.10;96.10;;;;;;5074483;28;20389;-70
2024/03/21 11:24:23;;;;;;;5.73;5.10;;;19.40;97.10;;;;;;5074417;28;20166;-71
2024/03/21 11:26:49;;;;;;;5.93;5.23;;;19.90;94.80;;;;;;5074061;28;20395;-70
2024/03/21 11:29:15;;;;;;;6.33;4.83;;;20.40;92.10;;;;;;5074261;28;20222;-71
2024/03/21 11:31:42;;;;;;;5.90;5.00;;;21.50;91.70;;;;;;5074367;28;20162;-70
2024/03/21 11:34:10;;;;;;;4.20;3.80;;;22.70;75.00;;;;;;5056259;28;20478;-70
2024/03/21 11:36:35;;;;;;;6.50;4.03;;;22.80;62.40;;;;;;5073979;28;20471;-70
2024/03/21 11:39:05;;;;;;;5.33;4.33;;;22.60;59.40;;;;;;5074170;28;20495;-71
2024/03/21 11:41:31;;;;;;;4.93;4.27;;;22.40;58.20;;;;;;5074192;28;20532;-71
2024/03/21 11:43:58;;;;;;;3.83;3.50;;;22.90;58.50;;;;;;5074011;28;20401;-70
2024/03/21 11:46:24;;;;;;;5.23;3.73;;;23.10;57.00;;;;;;5073421;28;20171;-71
2024/03/21 11:49:19;;;;;;;7.37;4.60;;;23.30;56.50;;;;;;5074063;28;20511;-71
2024/03/21 11:51:45;;;;;;;4.00;3.40;;;23.90;56.20;;;;;;5052401;28;20421;-71
2024/03/21 11:54:13;;;;;;;7.50;3.87;;;25.10;55.10;;;;;;5073774;28;20538;-70
2024/03/21 11:56:41;;;;;;;3.30;2.80;;;26.20;51.10;;;;;;5055473;28;20409;-71
2024/03/21 11:59:10;;;;;;;2.83;2.63;;;28.40;50.60;;;;;;5073788;28;20428;-70
2024/03/21 12:01:36;;;;;;;3.13;2.80;;;31.20;44.60;;;;;;5073498;28;20439;-71
2024/03/21 12:04:03;;;;;;;3.80;3.50;;;32.90;39.70;;;;;;5073475;28;20404;-70
2024/03/21 12:06:29;;;;;;;3.93;3.63;;;34.30;35.20;;;;;;5073288;28;20405;-70
2024/03/21 12:08:55;;;;;;;3.10;2.90;;;34.80;32.50;;;;;;5073448;28;20420;-70
2024/03/21 12:11:21;;;;;;;4.67;3.50;;;34.20;30.30;;;;;;5073446;28;20454;-70
2024/03/21 12:13:48;;;;;;;5.83;5.10;;;33.60;30.20;;;;;;5073297;28;20451;-71
2024/03/21 12:16:18;;;;;;;4.50;4.10;;;32.40;29.60;;;;;;5073164;28;20479;-71
2024/03/21 12:18:45;;;;;;;4.93;4.30;;;31.20;30.40;;;;;;5055586;28;20971;-71
2024/03/21 12:21:21;;;;;;;4.93;4.53;;;30.50;31.40;;;;;;5073296;28;20403;-70
2024/03/21 12:23:48;;;;;;;4.17;3.83;;;29.60;31.70;;;;;;5073182;28;20715;-71
2024/03/21 12:26:16;;;;;;;4.73;4.33;;;28.40;32.70;;;;;;5072938;28;20535;-71
2024/03/21 12:28:44;;;;;;;4.03;3.70;;;27.10;33.80;;;;;;5073085;28;20413;-71
2024/03/21 12:31:15;;;;;;;3.97;3.67;;;26.50;35.40;;;;;;5073130;28;20427;-70
2024/03/21 12:33:44;;;;;;;3.97;3.57;;;26.00;36.30;;;;;;5073108;28;20445;-71
2024/03/21 12:36:11;;;;;;;4.37;4.07;;;26.00;37.80;;;;;;5072711;28;20397;-70